Time;durP1;ratioP1;P1;durP2;ratioP2;P2;SDS_P1;SDS_P2;PMS_P1;PMS_P2;Temp;Humidity;BMP_temperature;BMP_pressure;BME280_temperature;BME280_humidity;BME280_pressure;Samples;Min_cycle;Max_cycle;Signal;HPM_P1;HPM_P2
2022/05/26 13:14:44;;;;;;;0.20;0.20;;;;;;;15.32;52.28;97894.84;5109257;27;20343;-66
2022/05/26 13:17:10;;;;;;;0.75;0.50;;;;;;;15.39;53.12;97901.69;5121514;28;20051;-68
2022/05/26 13:19:45;;;;;;;0.10;0.10;;;;;;;15.38;53.63;97883.44;5105360;28;20406;-66
2022/05/26 13:22:17;;;;;;;0.35;0.25;;;;;;;15.49;53.82;97878.66;5110303;28;20036;-66
2022/05/26 13:25:23;;;;;;;0.22;0.22;;;;;;;15.73;53.67;97883.44;5118543;27;20455;-68
2022/05/26 13:28:08;;;;;;;0.15;0.13;;;;;;;15.83;53.53;97875.06;5068261;28;20489;-67
2022/05/26 13:33:40;;;;;;;0.10;0.10;;;;;;;15.78;53.90;97864.03;5108952;28;20043;-66
2022/05/26 13:36:06;;;;;;;0.20;0.20;;;;;;;15.75;53.95;97850.75;5106910;28;20513;-71
2022/05/26 13:38:37;;;;;;;0.77;0.52;;;;;;;15.71;53.73;97853.28;5108298;28;20024;-67
2022/05/26 13:41:06;;;;;;;0.10;0.10;;;;;;;15.62;53.83;97849.50;5107246;28;20028;-66
2022/05/26 13:43:38;;;;;;;0.40;0.40;;;;;;;15.39;54.33;97843.59;5109566;28;20398;-66
2022/05/26 13:46:06;;;;;;;0.20;0.20;;;;;;;15.15;54.64;97851.00;5108178;28;20038;-66
2022/05/26 13:48:42;;;;;;;0.45;0.45;;;;;;;14.95;54.78;97861.09;5108389;28;20028;-66
2022/05/26 13:51:20;;;;;;;0.40;0.40;;;;;;;14.91;54.70;97859.19;5108675;28;20028;-71
2022/05/26 13:54:15;;;;;;;0.20;0.20;;;;;;;14.97;54.48;97845.06;5108253;28;20505;-65
2022/05/26 13:56:45;;;;;;;0.20;0.20;;;;;;;15.04;54.06;97828.97;5108566;28;20032;-65
2022/05/26 13:59:13;;;;;;;0.50;0.50;;;;;;;15.20;53.65;97815.84;5108433;28;20027;-65
2022/05/26 14:01:53;;;;;;;0.20;0.20;;;;;;;15.31;53.13;97827.66;5108887;28;20027;-69
2022/05/26 14:04:41;;;;;;;0.10;0.10;;;;;;;15.28;52.84;97832.94;5108044;28;20100;-65
2022/05/26 14:07:34;;;;;;;0.20;0.20;;;;;;;15.24;53.12;97829.94;5115109;28;20494;-65
2022/05/26 14:10:28;;;;;;;0.10;0.10;;;;;;;15.17;52.75;97829.44;5108354;28;20039;-71
2022/05/26 14:13:03;;;;;;;0.13;0.13;;;;;;;15.13;52.75;97825.59;5112208;28;20469;-63
2022/05/26 14:15:52;;;;;;;0.20;0.20;;;;;;;15.11;52.69;97841.66;5128349;27;20115;-66
2022/05/26 14:18:48;;;;;;;0.35;0.20;;;;;;;15.09;52.58;97836.41;5109331;28;20035;-68
2022/05/26 14:21:14;;;;;;;0.10;0.10;;;;;;;15.09;52.46;97852.16;5109271;28;20118;-68
2022/05/26 14:23:57;;;;;;;0.10;0.10;;;;;;;15.05;52.55;97832.56;5110326;28;20557;-65
2022/05/26 14:26:39;;;;;;;0.20;0.20;;;;;;;14.98;52.39;97841.16;5089275;28;20120;-70
2022/05/26 14:29:16;;;;;;;0.20;0.20;;;;;;;14.98;52.31;97849.47;5093047;28;20045;-67
2022/05/26 14:32:09;;;;;;;0.20;0.20;;;;;;;14.88;52.22;97836.56;5094556;28;20036;-69
2022/05/26 14:34:39;;;;;;;0.40;0.40;;;;;;;14.85;52.28;97837.09;5094232;28;20032;-69
2022/05/26 14:37:05;;;;;;;0.55;0.40;;;;;;;14.85;52.12;97830.75;5092812;28;20028;-70
2022/05/26 14:39:32;;;;;;;4.10;0.47;;;;;;;14.81;52.31;97832.44;5085116;28;20123;-69
2022/05/26 14:41:58;;;;;;;0.20;0.20;;;;;;;14.81;52.14;97836.06;5073594;28;20109;-69
2022/05/26 14:44:25;;;;;;;0.20;0.20;;;;;;;14.90;51.48;97836.28;5073956;28;20119;-66
2022/05/26 14:46:52;;;;;;;0.20;0.20;;;;;;;14.98;51.53;97835.63;5076844;28;20047;-67
2022/05/26 14:49:21;;;;;;;0.20;0.20;;;;;;;15.04;51.13;97845.53;5093853;28;20036;-67
2022/05/26 14:51:48;;;;;;;0.20;0.20;;;;;;;15.05;51.06;97841.66;5091927;28;20040;-64
2022/05/26 14:56:59;;;;;;;0.20;0.20;;;;;;;14.96;51.00;97845.31;5085951;28;20106;-65
2022/05/26 14:59:26;;;;;;;0.20;0.20;;;;;;;14.88;50.91;97839.31;5104601;28;20030;-67
2022/05/26 15:01:53;;;;;;;0.20;0.20;;;;;;;14.83;51.39;97839.34;5106980;28;20119;-70
2022/05/26 15:04:18;;;;;;;0.10;0.10;;;;;;;14.75;51.08;97837.16;5096691;28;20203;-64
2022/05/26 15:06:47;;;;;;;0.20;0.20;;;;;;;14.68;51.43;97831.16;5096795;28;20521;-63
2022/05/26 15:09:23;;;;;;;0.57;0.57;;;;;;;14.71;51.14;97836.13;5096456;28;20028;-66
2022/05/26 15:11:52;;;;;;;0.32;0.32;;;;;;;14.68;51.28;97839.47;5092863;28;20039;-62
2022/05/26 15:14:21;;;;;;;0.20;0.20;;;;;;;14.60;50.94;97837.25;5094031;28;20055;-66
2022/05/26 15:16:49;;;;;;;0.50;0.50;;;;;;;14.57;50.93;97824.81;5093598;28;20389;-65
2022/05/26 15:19:21;;;;;;;0.10;0.10;;;;;;;14.52;51.10;97833.16;5092254;28;20513;-68
2022/05/26 15:21:49;;;;;;;0.10;0.10;;;;;;;14.50;51.08;97835.34;5079386;28;20394;-65
2022/05/26 15:24:16;;;;;;;2.17;0.22;;;;;;;14.43;50.86;97834.84;5089010;28;20043;-67
2022/05/26 15:26:43;;;;;;;0.40;0.40;;;;;;;14.35;51.15;97826.06;5086836;28;20032;-67
2022/05/26 15:29:09;;;;;;;0.10;0.10;;;;;;;14.29;50.99;97813.38;5091754;28;20114;-65
2022/05/26 15:31:36;;;;;;;0.90;0.90;;;;;;;14.19;51.26;97803.22;5089560;28;20549;-66
2022/05/26 15:34:02;;;;;;;0.20;0.20;;;;;;;14.15;51.28;97812.34;5090813;28;20028;-64
2022/05/26 15:36:30;;;;;;;0.30;0.30;;;;;;;14.04;51.15;97811.56;5090727;28;20109;-63
2022/05/26 15:38:58;;;;;;;0.88;0.35;;;;;;;13.97;51.38;97808.25;5091914;28;20474;-68
2022/05/26 15:41:24;;;;;;;0.10;0.10;;;;;;;13.85;51.23;97808.59;5091025;28;20555;-70
2022/05/26 15:43:51;;;;;;;0.40;0.40;;;;;;;13.73;51.18;97803.38;5089161;28;20041;-68
2022/05/26 15:46:27;;;;;;;0.20;0.20;;;;;;;13.60;51.34;97799.28;5090563;28;20530;-68
2022/05/26 15:48:54;;;;;;;0.65;0.30;;;;;;;13.47;51.85;97811.72;5089863;28;20513;-67
2022/05/26 15:51:20;;;;;;;0.20;0.20;;;;;;;13.35;51.88;97813.13;5091449;28;20031;-66
2022/05/26 15:53:46;;;;;;;0.30;0.30;;;;;;;13.21;51.78;97805.38;5092904;28;20616;-64
2022/05/26 15:56:24;;;;;;;0.32;0.32;;;;;;;13.07;51.81;97804.28;5089589;28;20545;-63
2022/05/26 15:58:51;;;;;;;0.17;0.17;;;;;;;12.95;52.24;97812.81;5093294;28;20031;-65
2022/05/26 16:01:19;;;;;;;0.25;0.25;;;;;;;12.85;52.15;97810.88;5092087;28;20032;-65
2022/05/26 16:03:49;;;;;;;0.20;0.20;;;;;;;12.77;52.20;97806.75;5090508;28;20056;-64
2022/05/26 16:06:32;;;;;;;0.35;0.22;;;;;;;12.70;52.18;97788.84;5093034;28;20035;-65
2022/05/26 16:08:58;;;;;;;0.55;0.55;;;;;;;12.61;52.30;97796.81;5091483;28;20405;-67
2022/05/26 16:11:28;;;;;;;0.17;0.17;;;;;;;12.59;51.97;97788.81;5096414;28;20035;-66
2022/05/26 16:14:03;;;;;;;0.10;0.10;;;;;;;12.55;52.15;97771.19;5101955;28;20449;-69
2022/05/26 16:16:29;;;;;;;0.20;0.20;;;;;;;12.52;51.93;97774.50;5090264;28;20047;-67
2022/05/26 16:18:59;;;;;;;3.50;0.60;;;;;;;12.48;52.14;97767.06;5098856;28;20058;-71
2022/05/26 16:21:37;;;;;;;0.20;0.20;;;;;;;12.42;52.01;97764.28;5106527;28;20035;-67
2022/05/26 16:24:09;;;;;;;1.25;0.20;;;;;;;12.35;51.96;97763.75;5091428;28;20039;-69
2022/05/26 16:26:39;;;;;;;0.10;0.10;;;;;;;12.29;52.22;97761.22;5108104;28;20032;-71
2022/05/26 16:29:15;;;;;;;0.20;0.20;;;;;;;12.22;52.02;97770.59;5102456;28;20020;-71
2022/05/26 16:31:41;;;;;;;0.20;0.20;;;;;;;12.13;52.12;97769.47;5098314;28;20036;-69
2022/05/26 16:34:07;;;;;;;0.55;0.40;;;;;;;12.08;52.02;97780.44;5092277;28;20892;-68
2022/05/26 16:36:53;;;;;;;0.30;0.30;;;;;;;12.01;52.27;97771.59;5091325;28;20032;-70
2022/05/26 16:39:20;;;;;;;0.90;0.73;;;;;;;11.98;52.27;97781.22;5087734;28;20028;-71
2022/05/26 16:41:47;;;;;;;0.20;0.20;;;;;;;11.89;52.28;97782.81;5090837;28;20405;-67
2022/05/26 16:44:15;;;;;;;0.20;0.20;;;;;;;11.84;52.36;97778.13;5091827;28;20036;-70
2022/05/26 16:46:41;;;;;;;0.98;0.50;;;;;;;11.82;52.21;97794.06;5090182;28;20039;-65
2022/05/26 16:49:07;;;;;;;0.20;0.20;;;;;;;11.78;52.38;97790.19;5087472;28;20032;-65
2022/05/26 16:51:39;;;;;;;0.35;0.35;;;;;;;11.77;52.13;97780.28;5052308;28;20942;-68
2022/05/26 16:54:22;;;;;;;0.20;0.20;;;;;;;11.73;52.37;97774.50;5009707;28;20052;-65
2022/05/26 16:56:49;;;;;;;0.20;0.20;;;;;;;11.66;52.24;97784.91;5020488;28;20038;-66
2022/05/26 16:59:15;;;;;;;0.30;0.30;;;;;;;11.64;52.32;97778.84;5009131;28;20037;-64
2022/05/26 17:01:41;;;;;;;0.20;0.20;;;;;;;11.61;52.02;97784.88;5007707;28;20036;-63
2022/05/26 17:04:09;;;;;;;0.28;0.28;;;;;;;11.58;52.36;97796.41;5008778;28;20042;-63
2022/05/26 17:06:36;;;;;;;0.30;0.30;;;;;;;11.52;52.32;97791.97;5011346;28;20565;-62
2022/05/26 17:09:04;;;;;;;0.20;0.20;;;;;;;11.48;52.47;97786.16;5016230;28;20044;-64
2022/05/26 17:11:30;;;;;;;0.20;0.20;;;;;;;11.45;52.68;97777.66;5002540;28;20034;-63
2022/05/26 17:22:11;;;;;;;0.20;0.20;;;;;;;11.29;52.87;97765.72;5012156;28;20143;-66
2022/05/26 17:24:37;;;;;;;0.32;0.32;;;;;;;11.27;52.74;97782.47;4998358;28;20503;-65
2022/05/26 17:27:41;;;;;;;0.28;0.28;;;;;;;11.28;52.71;97775.06;5030126;28;20045;-67
2022/05/26 17:30:13;;;;;;;0.20;0.20;;;;;;;11.22;52.44;97760.47;5073969;28;20084;-67
2022/05/26 17:32:38;;;;;;;0.20;0.20;;;;;;;11.25;52.66;97775.59;5016989;28;20087;-65
2022/05/26 17:35:05;;;;;;;0.20;0.20;;;;;;;11.25;52.51;97768.19;5011994;28;20411;-65
2022/05/26 17:37:31;;;;;;;0.20;0.20;;;;;;;11.22;52.45;97765.97;5012208;28;20034;-67
2022/05/26 17:39:58;;;;;;;0.20;0.20;;;;;;;11.28;52.23;97761.31;5010952;28;20045;-66
2022/05/26 17:42:24;;;;;;;0.50;0.50;;;;;;;11.25;52.38;97765.44;5021108;28;20040;-64
2022/05/26 17:44:51;;;;;;;0.20;0.20;;;;;;;11.26;52.32;97766.25;5005949;28;20054;-66
2022/05/26 17:47:18;;;;;;;0.20;0.20;;;;;;;11.26;52.52;97767.06;4991754;28;20043;-66
2022/05/26 17:49:44;;;;;;;0.28;0.28;;;;;;;11.25;52.24;97772.84;4998153;28;20512;-66
2022/05/26 17:52:16;;;;;;;0.30;0.30;;;;;;;11.24;52.57;97779.44;5024649;28;20121;-66
2022/05/26 17:54:49;;;;;;;0.30;0.30;;;;;;;11.22;52.33;97777.78;4991645;28;20042;-66
2022/05/26 17:57:15;;;;;;;0.20;0.20;;;;;;;11.20;52.44;97779.13;4992327;28;20047;-65
2022/05/26 18:02:26;;;;;;;0.43;0.43;;;;;;;11.18;52.47;97771.16;5015233;28;20099;-64
2022/05/26 18:04:52;;;;;;;0.60;0.30;;;;;;;11.17;52.60;97768.66;5018176;28;20045;-67
2022/05/26 18:07:20;;;;;;;0.20;0.20;;;;;;;11.16;52.55;97773.34;5015128;28;20026;-67
2022/05/26 18:09:47;;;;;;;0.35;0.35;;;;;;;11.13;52.58;97773.88;5013836;28;20064;-65
2022/05/26 18:12:13;;;;;;;0.40;0.40;;;;;;;11.11;52.63;97787.03;5015834;28;20034;-65
2022/05/26 18:14:38;;;;;;;0.20;0.20;;;;;;;11.11;52.80;97795.28;5013701;28;20058;-65
2022/05/26 18:17:09;;;;;;;0.20;0.20;;;;;;;11.08;52.89;97789.50;4995429;28;20038;-65
2022/05/26 18:19:39;;;;;;;0.20;0.20;;;;;;;11.05;52.59;97788.09;5013371;28;20041;-63
2022/05/26 18:22:04;;;;;;;0.20;0.20;;;;;;;11.02;52.62;97794.94;5031682;28;20041;-63
2022/05/26 18:24:30;;;;;;;2.13;0.85;;;;;;;10.98;52.86;97790.22;5018767;28;20047;-65
2022/05/26 18:26:56;;;;;;;0.50;0.50;;;;;;;10.95;53.07;97799.00;5019286;28;20172;-67
2022/05/26 18:29:22;;;;;;;1.10;1.10;;;;;;;10.90;53.27;97790.72;5025021;28;20440;-66
2022/05/26 18:31:53;;;;;;;0.20;0.20;;;;;;;10.85;53.18;97783.25;5016597;28;20135;-65
2022/05/26 18:34:24;;;;;;;0.85;0.63;;;;;;;10.79;53.05;97776.91;5016232;28;20038;-67
2022/05/26 18:36:51;;;;;;;0.40;0.40;;;;;;;10.75;53.40;97786.75;5023536;28;20049;-66
2022/05/26 18:39:22;;;;;;;0.50;0.50;;;;;;;10.71;53.18;97788.38;5015072;28;20034;-65
2022/05/26 18:41:48;;;;;;;0.63;0.57;;;;;;;10.66;53.23;97793.81;5055335;28;20034;-67
2022/05/26 18:44:14;;;;;;;0.40;0.40;;;;;;;10.62;53.52;97785.25;5034043;28;20029;-66
2022/05/26 18:46:41;;;;;;;1.10;0.70;;;;;;;10.58;53.34;97780.56;5034336;28;20534;-66
2022/05/26 18:49:08;;;;;;;0.40;0.40;;;;;;;10.54;53.58;97794.00;5034646;28;20136;-67
2022/05/26 18:51:35;;;;;;;1.65;0.85;;;;;;;10.51;53.52;97789.00;5035039;28;20411;-66
2022/05/26 18:54:03;;;;;;;0.65;0.60;;;;;;;10.48;53.67;97795.00;5021031;28;20135;-67
2022/05/26 18:56:30;;;;;;;0.82;0.82;;;;;;;10.45;53.48;97798.28;5014727;28;20042;-67
2022/05/26 18:58:55;;;;;;;1.10;0.52;;;;;;;10.39;53.78;97802.06;5030872;28;20185;-67
2022/05/26 19:01:21;;;;;;;0.47;0.47;;;;;;;10.35;53.77;97801.75;5034518;28;20034;-68
2022/05/26 19:03:49;;;;;;;1.90;0.95;;;;;;;10.33;53.66;97803.88;5034564;28;20072;-67
2022/05/26 19:06:15;;;;;;;7.22;1.02;;;;;;;10.30;53.95;97796.16;5034168;28;20124;-66
2022/05/26 19:08:42;;;;;;;0.77;0.77;;;;;;;10.24;53.75;97792.53;5034363;28;20064;-66
2022/05/26 19:11:11;;;;;;;0.20;0.20;;;;;;;10.21;53.97;97787.56;5033213;28;20415;-66
2022/05/26 19:13:43;;;;;;;0.50;0.35;;;;;;;10.18;54.09;97790.81;5029422;28;20065;-67
2022/05/26 19:16:11;;;;;;;1.00;0.70;;;;;;;10.17;54.23;97783.69;5017519;28;20033;-68
2022/05/26 19:18:38;;;;;;;0.30;0.30;;;;;;;10.13;54.15;97783.38;5014571;28;20044;-67
2022/05/26 19:21:04;;;;;;;0.45;0.45;;;;;;;10.11;54.32;97773.72;5014977;28;20044;-67
2022/05/26 19:23:31;;;;;;;0.50;0.50;;;;;;;10.10;54.17;97778.41;5014138;28;20128;-68
2022/05/26 19:26:00;;;;;;;0.68;0.57;;;;;;;10.09;54.17;97768.50;5013975;28;20038;-67
2022/05/26 19:28:40;;;;;;;1.45;0.40;;;;;;;10.10;54.24;97767.44;5014237;28;20040;-67
2022/05/26 19:31:16;;;;;;;1.05;0.70;;;;;;;10.07;54.26;97754.25;5013993;28;20026;-67
2022/05/26 19:33:41;;;;;;;0.20;0.20;;;;;;;10.10;54.23;97767.44;5013993;28;20472;-68
2022/05/26 19:36:07;;;;;;;0.45;0.45;;;;;;;10.11;54.19;97754.53;5013944;28;20088;-68
2022/05/26 19:38:33;;;;;;;0.60;0.60;;;;;;;10.11;54.20;97754.53;5024614;28;20403;-68
2022/05/26 19:40:59;;;;;;;2.45;0.57;;;;;;;10.11;54.20;97751.78;5033380;28;20495;-68
2022/05/26 19:43:35;;;;;;;0.22;0.22;;;;;;;10.11;54.32;97746.31;5021891;28;20049;-68
2022/05/26 19:46:01;;;;;;;1.70;0.80;;;;;;;10.10;54.18;97745.50;5013357;28;20041;-67
2022/05/26 19:48:28;;;;;;;0.30;0.30;;;;;;;10.09;54.13;97743.81;5021900;28;20048;-67
2022/05/26 19:50:54;;;;;;;0.57;0.57;;;;;;;10.09;54.46;97740.25;5016957;28;20045;-67
2022/05/26 19:53:20;;;;;;;0.40;0.40;;;;;;;10.07;54.42;97729.56;5021721;28;20038;-67
2022/05/26 19:55:48;;;;;;;0.30;0.30;;;;;;;10.09;54.40;97721.88;5013700;28;20441;-67
2022/05/26 19:58:20;;;;;;;0.75;0.75;;;;;;;10.07;54.28;97732.28;5013521;28;20088;-69
2022/05/26 20:00:47;;;;;;;2.00;0.55;;;;;;;10.02;54.64;97734.97;5013474;28;20461;-67
2022/05/26 20:03:13;;;;;;;0.30;0.30;;;;;;;10.02;54.64;97734.97;5013463;28;20165;-68
2022/05/26 20:05:38;;;;;;;0.20;0.20;;;;;;;10.04;54.49;97731.97;5013402;28;20129;-67
2022/05/26 20:08:05;;;;;;;1.52;0.63;;;;;;;10.04;54.70;97721.00;5013331;28;20045;-66
2022/05/26 20:10:31;;;;;;;0.38;0.38;;;;;;;10.01;54.56;97736.03;5013553;28;20187;-68
2022/05/26 20:12:57;;;;;;;0.45;0.45;;;;;;;9.99;54.51;97733.56;5013015;28;20133;-67
2022/05/26 20:15:24;;;;;;;0.22;0.22;;;;;;;10.01;54.37;97741.53;5012573;28;20034;-65
2022/05/26 20:17:51;;;;;;;0.20;0.20;;;;;;;9.99;54.55;97728.06;5013006;28;20121;-67
2022/05/26 20:20:19;;;;;;;0.30;0.30;;;;;;;9.98;54.43;97728.34;5028308;28;20519;-69
2022/05/26 20:22:46;;;;;;;0.25;0.25;;;;;;;9.99;54.53;97735.50;5012592;28;20041;-65
2022/05/26 20:25:11;;;;;;;0.38;0.38;;;;;;;9.99;54.56;97746.47;5012820;28;20034;-65
2022/05/26 20:29:29;;;;;;;0.50;0.50;;;;;;;9.96;54.55;97736.81;5013205;28;20451;-66
2022/05/26 20:30:24;;;;;;;0.85;0.63;;;;;;;9.93;54.67;97739.25;5013121;28;20444;-65
2022/05/26 20:32:49;;;;;;;0.30;0.30;;;;;;;9.92;54.58;97745.81;5013009;28;20038;-66
2022/05/26 20:35:16;;;;;;;0.30;0.30;;;;;;;9.90;54.57;97739.78;5012475;28;20057;-69
2022/05/26 20:37:42;;;;;;;0.40;0.40;;;;;;;9.87;54.64;97741.13;5013131;28;20034;-65
2022/05/26 20:40:08;;;;;;;0.77;0.30;;;;;;;9.86;54.69;97733.97;5012941;28;20030;-66
2022/05/26 20:42:34;;;;;;;1.02;0.40;;;;;;;9.84;54.83;97740.81;5012593;28;20040;-66
2022/05/26 20:45:00;;;;;;;1.13;0.25;;;;;;;9.81;54.79;97737.47;5011988;28;20408;-67
2022/05/26 20:47:27;;;;;;;0.38;0.38;;;;;;;9.77;54.81;97730.84;5012684;28;20121;-65
2022/05/26 20:49:54;;;;;;;0.32;0.32;;;;;;;9.76;54.76;97728.38;5012717;28;20034;-65
2022/05/26 20:52:22;;;;;;;0.47;0.38;;;;;;;9.72;54.88;97730.81;5014820;28;20030;-66
2022/05/26 20:54:49;;;;;;;0.20;0.20;;;;;;;9.71;54.86;97731.06;5020003;28;20449;-65
2022/05/26 20:57:25;;;;;;;0.30;0.30;;;;;;;9.69;55.05;97727.72;5012549;28;20033;-65
2022/05/26 20:59:51;;;;;;;0.30;0.30;;;;;;;9.65;54.87;97724.69;5012078;28;20065;-65
2022/05/26 21:02:18;;;;;;;0.47;0.32;;;;;;;9.58;54.89;97716.63;5012308;28;20034;-65
2022/05/26 21:04:44;;;;;;;3.88;0.52;;;;;;;9.59;55.09;97721.03;5012434;28;20069;-65
2022/05/26 21:07:13;;;;;;;0.35;0.35;;;;;;;9.57;55.01;97715.00;5012358;28;20037;-67
2022/05/26 21:09:40;;;;;;;0.30;0.30;;;;;;;9.54;55.15;97712.78;5010800;28;20029;-66
2022/05/26 21:12:07;;;;;;;0.65;0.65;;;;;;;9.55;55.12;97710.84;5012122;28;20034;-67
2022/05/26 21:14:32;;;;;;;0.30;0.20;;;;;;;9.54;55.19;97710.03;5027081;28;20420;-66
2022/05/26 21:16:58;;;;;;;0.30;0.30;;;;;;;9.52;55.23;97706.72;5011607;28;20037;-66
2022/05/26 21:19:27;;;;;;;0.20;0.20;;;;;;;9.51;55.33;97710.56;5012212;28;20096;-66
2022/05/26 21:21:52;;;;;;;0.30;0.30;;;;;;;9.49;55.24;97709.97;5012363;28;20396;-66
2022/05/26 21:24:19;;;;;;;0.30;0.30;;;;;;;9.42;55.53;97699.22;5013140;28;20044;-67
2022/05/26 21:26:46;;;;;;;0.38;0.38;;;;;;;9.43;55.44;97700.84;5012007;28;20037;-66
2022/05/26 21:29:44;;;;;;;0.45;0.45;;;;;;;9.40;55.42;97701.34;5011903;28;20038;-66
2022/05/26 21:32:10;;;;;;;0.73;0.57;;;;;;;9.35;55.72;97705.94;5011019;28;20050;-66
2022/05/26 21:34:36;;;;;;;0.55;0.55;;;;;;;9.33;55.46;97699.91;5012920;28;20034;-66
2022/05/26 21:37:01;;;;;;;0.45;0.45;;;;;;;9.30;55.77;97693.00;5015854;28;20033;-66
2022/05/26 21:39:27;;;;;;;0.40;0.40;;;;;;;9.29;55.81;97707.81;5016060;28;20038;-66
2022/05/26 21:41:53;;;;;;;1.20;0.32;;;;;;;9.29;55.72;97694.09;5016247;28;20049;-67
2022/05/26 21:44:19;;;;;;;0.60;0.60;;;;;;;9.24;55.85;97694.03;5015915;28;20400;-68
2022/05/26 21:46:45;;;;;;;0.32;0.32;;;;;;;9.25;56.04;97695.69;5015372;28;20029;-66
2022/05/26 21:49:11;;;;;;;0.60;0.60;;;;;;;9.22;56.08;97693.47;5015976;28;20088;-66
2022/05/26 21:51:41;;;;;;;0.40;0.40;;;;;;;9.19;56.23;97686.56;5015426;28;20117;-66
2022/05/26 21:54:11;;;;;;;0.45;0.38;;;;;;;9.16;56.52;97686.22;5015503;28;20435;-67
2022/05/26 21:56:48;;;;;;;0.28;0.28;;;;;;;9.11;56.77;97685.09;5015717;28;20034;-67
2022/05/26 21:59:16;;;;;;;0.65;0.65;;;;;;;9.08;56.85;97687.50;5015923;28;20064;-65
2022/05/26 22:01:43;;;;;;;0.20;0.20;;;;;;;9.04;56.89;97695.41;5028318;28;20128;-66
2022/05/26 22:04:13;;;;;;;0.63;0.63;;;;;;;9.01;57.13;97687.72;5033326;28;20037;-66
2022/05/26 22:12:08;;;;;;;0.38;0.32;;;;;;;8.87;57.51;97691.88;5015556;28;20051;-67
2022/05/26 22:14:34;;;;;;;0.30;0.30;;;;;;;8.84;57.56;97687.72;5015972;28;20483;-67
2022/05/26 22:17:00;;;;;;;0.38;0.38;;;;;;;8.83;57.69;97686.06;5015676;28;20034;-68
2022/05/26 22:19:27;;;;;;;0.20;0.20;;;;;;;8.81;57.62;97680.00;5015149;28;20045;-68
2022/05/26 22:22:10;;;;;;;0.35;0.35;;;;;;;8.81;57.65;97679.19;5030393;28;20060;-67
2022/05/26 22:24:37;;;;;;;0.50;0.50;;;;;;;8.76;57.78;97669.00;5030459;28;20039;-67
2022/05/26 22:27:04;;;;;;;1.38;0.63;;;;;;;8.72;57.92;97676.06;5023794;28;20033;-67
2022/05/26 22:29:31;;;;;;;0.40;0.40;;;;;;;8.70;57.76;97672.72;5033087;28;20116;-67
2022/05/26 22:31:59;;;;;;;0.63;0.50;;;;;;;8.69;58.09;97682.84;5032645;28;20022;-67
2022/05/26 22:35:20;;;;;;;0.30;0.30;;;;;;;8.67;58.18;97678.69;5030103;28;20548;-67
2022/05/26 22:37:17;;;;;;;2.53;0.65;;;;;;;8.65;58.30;97680.88;5014794;28;20459;-67
2022/05/26 22:39:43;;;;;;;0.55;0.55;;;;;;;8.64;58.29;97684.69;5013334;28;20040;-66
2022/05/26 22:42:09;;;;;;;0.22;0.22;;;;;;;8.59;58.36;97696.38;5014918;28;20088;-67
2022/05/26 22:44:42;;;;;;;5.15;0.52;;;;;;;8.56;58.48;97694.16;5014706;28;20022;-68
2022/05/26 22:47:09;;;;;;;1.05;1.02;;;;;;;8.50;58.68;97692.41;5014273;28;20084;-66
2022/05/26 22:49:35;;;;;;;0.88;0.70;;;;;;;8.47;58.69;97695.66;5014676;28;20452;-67
2022/05/26 22:52:00;;;;;;;2.20;0.55;;;;;;;8.44;58.87;97696.97;5014557;28;20034;-66
2022/05/26 22:54:26;;;;;;;1.13;1.08;;;;;;;8.40;58.79;97710.25;5014561;28;20065;-67
2022/05/26 22:56:52;;;;;;;3.72;1.48;;;;;;;8.36;58.96;97709.13;5014806;28;20038;-65
2022/05/26 22:59:18;;;;;;;0.50;0.50;;;;;;;8.35;58.98;97715.66;5014420;28;20042;-66
2022/05/26 23:01:44;;;;;;;1.65;0.85;;;;;;;8.34;58.95;97713.16;5014667;28;20409;-67
2022/05/26 23:04:10;;;;;;;0.38;0.38;;;;;;;8.33;59.10;97712.34;5014506;28;20038;-66
2022/05/26 23:06:37;;;;;;;0.43;0.43;;;;;;;8.31;59.09;97721.88;5014366;28;20041;-65
2022/05/26 23:09:04;;;;;;;0.52;0.52;;;;;;;8.29;58.92;97727.59;5015102;28;20168;-65
2022/05/26 23:11:30;;;;;;;0.85;0.85;;;;;;;8.30;59.12;97720.22;5030297;28;20033;-65
2022/05/26 23:14:01;;;;;;;1.00;0.65;;;;;;;8.30;59.16;97723.75;5033557;28;20095;-65
2022/05/26 23:16:27;;;;;;;4.07;0.57;;;;;;;8.30;59.04;97723.75;5018879;28;20049;-66
2022/05/26 23:18:53;;;;;;;6.35;0.82;;;;;;;8.28;59.01;97725.94;5014112;28;20566;-66
2022/05/26 23:21:21;;;;;;;0.65;0.65;;;;;;;8.28;59.12;97730.56;5014060;28;20042;-65
2022/05/26 23:23:48;;;;;;;0.50;0.50;;;;;;;8.25;59.17;97727.25;5014267;28;20041;-66
2022/05/26 23:26:14;;;;;;;3.38;1.40;;;;;;;8.26;59.27;97719.88;5015128;28;20065;-65
2022/05/26 23:28:40;;;;;;;0.50;0.50;;;;;;;8.25;59.20;97710.84;5013837;28;20041;-65
2022/05/26 23:31:07;;;;;;;1.40;0.98;;;;;;;8.24;59.33;97700.16;5013719;28;20049;-65
2022/05/26 23:33:34;;;;;;;0.90;0.52;;;;;;;8.24;59.33;97697.41;5013682;28;20073;-64
2022/05/26 23:36:00;;;;;;;1.42;1.27;;;;;;;8.21;59.49;97682.31;5014471;28;20125;-64
2022/05/26 23:38:25;;;;;;;0.20;0.20;;;;;;;8.20;59.49;97679.84;5013733;28;20125;-64
2022/05/26 23:43:36;;;;;;;1.48;0.52;;;;;;;8.18;59.60;97660.13;5014097;28;20049;-65
2022/05/26 23:46:03;;;;;;;0.75;0.73;;;;;;;8.18;59.50;97650.00;5014053;28;20525;-65
2022/05/26 23:48:31;;;;;;;0.82;0.70;;;;;;;8.20;59.53;97655.22;5017013;28;20029;-65
2022/05/26 23:50:57;;;;;;;1.02;0.98;;;;;;;8.20;59.51;97649.75;5032984;28;20055;-66
2022/05/26 23:53:24;;;;;;;0.93;0.73;;;;;;;8.18;59.48;97643.72;5033148;28;20120;-68
2022/05/26 23:58:44;;;;;;;0.50;0.50;;;;;;;8.25;59.63;97649.84;5032794;28;20052;-67
